createdAt,value
2023-02-28T00:03:36.271Z,100100.34
2023-02-28T00:08:41.616Z,100107.59
2023-02-28T00:13:50.731Z,100096.09
2023-02-28T00:18:56.846Z,100104.91
2023-02-28T00:24:01.695Z,100102.19
2023-02-28T00:29:09.545Z,100089.75
2023-02-28T00:34:15.266Z,100093.81
2023-02-28T00:39:20.362Z,100089.75
2023-02-28T00:44:28.066Z,100096.00
2023-02-28T00:49:33.004Z,100093.00
2023-02-28T00:54:39.887Z,100091.03
2023-02-28T00:59:48.874Z,100087.38
2023-02-28T01:04:53.856Z,100089.78
2023-02-28T01:09:59.255Z,100089.22
2023-02-28T01:15:07.773Z,100086.16
2023-02-28T01:20:14.614Z,100089.78
2023-02-28T01:25:20.157Z,100083.34
2023-02-28T01:30:30.542Z,100082.09
2023-02-28T01:35:36.444Z,100088.09
2023-02-28T01:40:41.476Z,100087.22
2023-02-28T01:45:49.193Z,100081.59
2023-02-28T01:50:54.175Z,100086.56
2023-02-28T01:55:59.393Z,100076.66
2023-02-28T02:01:07.330Z,100068.75
2023-02-28T02:06:12.300Z,100080.50
2023-02-28T02:11:21.671Z,100079.94
2023-02-28T02:16:49.668Z,100071.50
2023-02-28T02:22:15.439Z,100074.06
2023-02-28T02:27:47.981Z,100065.44
2023-02-28T02:33:20.822Z,100067.72
2023-02-28T02:38:36.855Z,100068.63
2023-02-28T02:43:48.850Z,100074.41
2023-02-28T02:48:56.963Z,100067.78
2023-02-28T02:54:09.871Z,100072.50
2023-02-28T02:59:22.735Z,100073.88
2023-02-28T03:04:31.714Z,100080.09
2023-02-28T03:09:40.069Z,100075.06
2023-02-28T03:14:59.610Z,100084.47
2023-02-28T03:20:11.879Z,100078.38
2023-02-28T03:25:24.719Z,100079.25
2023-02-28T03:30:37.604Z,100078.50
2023-02-28T03:35:47.224Z,100072.56
2023-02-28T03:41:01.138Z,100079.78
2023-02-28T03:46:12.252Z,100074.13
2023-02-28T03:51:22.776Z,100084.09
2023-02-28T03:56:35.251Z,100086.84
2023-02-28T04:01:42.569Z,100086.91
2023-02-28T04:06:50.249Z,100090.72
2023-02-28T04:11:59.609Z,100093.16
2023-02-28T04:17:04.684Z,100092.78
2023-02-28T04:22:09.734Z,100093.59
2023-02-28T04:27:17.366Z,100101.88
2023-02-28T04:32:22.589Z,100111.06
2023-02-28T04:37:29.898Z,100118.69
2023-02-28T04:42:42.674Z,100112.22
2023-02-28T04:47:47.900Z,100112.03
2023-02-28T04:52:52.783Z,100116.59
2023-02-28T04:58:00.351Z,100114.16
2023-02-28T05:03:05.584Z,100111.75
2023-02-28T05:08:21.237Z,100106.88
2023-02-28T05:13:28.856Z,100114.53
2023-02-28T05:18:33.785Z,100119.28
2023-02-28T05:23:38.756Z,100119.91
2023-02-28T05:28:46.206Z,100128.91
2023-02-28T05:33:52.266Z,100129.66
2023-02-28T05:38:59.577Z,100133.66
2023-02-28T05:44:07.363Z,100129.25
2023-02-28T05:49:15.232Z,100123.69
2023-02-28T05:54:23.700Z,100129.09
2023-02-28T05:59:31.228Z,100134.19
2023-02-28T06:04:36.440Z,100143.16
2023-02-28T06:09:42.042Z,100135.84
2023-02-28T06:14:49.634Z,100150.41
2023-02-28T06:19:56.168Z,100154.16
2023-02-28T06:25:03.559Z,100157.91
2023-02-28T06:30:13.486Z,100164.28
2023-02-28T06:35:18.629Z,100170.56
2023-02-28T06:40:24.494Z,100186.16
2023-02-28T06:45:34.260Z,100181.91
2023-02-28T06:50:40.513Z,100193.31
2023-02-28T06:55:45.926Z,100200.34
2023-02-28T07:00:55.342Z,100203.56
2023-02-28T07:06:04.118Z,100200.72
2023-02-28T07:11:09.337Z,100201.47
2023-02-28T07:16:23.201Z,100202.25
2023-02-28T07:21:29.397Z,100208.31
2023-02-28T07:26:35.946Z,100205.88
2023-02-28T07:31:43.553Z,100201.97
2023-02-28T07:36:54.519Z,100204.81
2023-02-28T07:42:00.759Z,100213.41
2023-02-28T07:47:08.608Z,100213.66
2023-02-28T07:52:15.706Z,100212.63
2023-02-28T07:57:22.682Z,100215.66
2023-02-28T08:02:30.298Z,100217.31
2023-02-28T08:07:35.348Z,100220.94
2023-02-28T08:12:40.485Z,100222.44
2023-02-28T08:17:48.218Z,100209.41
2023-02-28T08:22:53.189Z,100217.53
2023-02-28T08:27:58.069Z,100224.56
2023-02-28T08:33:06.142Z,100220.38
2023-02-28T08:38:11.049Z,100217.53
2023-02-28T08:43:15.994Z,100217.81
2023-02-28T08:48:23.734Z,100213.63
2023-02-28T08:53:28.708Z,100233.81
2023-02-28T08:58:33.888Z,100227.34
2023-02-28T09:03:42.385Z,100227.50
2023-02-28T09:08:47.842Z,100231.09
2023-02-28T09:13:52.775Z,100221.81
2023-02-28T09:19:01.921Z,100224.41
2023-02-28T09:24:07.572Z,100223.91
2023-02-28T09:29:13.173Z,100217.03
2023-02-28T09:34:21.071Z,100228.78
2023-02-28T09:39:27.931Z,100212.25
2023-02-28T09:44:36.648Z,100202.97
2023-02-28T09:49:47.387Z,100204.00
2023-02-28T09:54:52.357Z,100200.50
2023-02-28T10:00:14.076Z,100215.78
2023-02-28T10:05:23.829Z,100218.03
2023-02-28T10:10:34.593Z,100218.31
2023-02-28T10:15:40.071Z,100215.91
2023-02-28T10:20:51.543Z,100219.88
2023-02-28T10:26:01.178Z,100225.91
2023-02-28T10:31:07.126Z,100220.84
2023-02-28T10:36:19.021Z,100220.53
2023-02-28T10:41:37.231Z,100214.09
2023-02-28T10:46:44.476Z,100216.91
2023-02-28T10:51:56.071Z,100219.44
2023-02-28T10:57:18.832Z,100209.38
2023-02-28T11:02:44.041Z,100207.75
2023-02-28T11:07:59.858Z,100200.56
2023-02-28T11:13:07.480Z,100191.28
2023-02-28T11:18:28.615Z,100185.75
2023-02-28T11:23:41.084Z,100174.19
2023-02-28T11:28:46.549Z,100176.63
2023-02-28T11:33:53.242Z,100167.03
2023-02-28T11:39:05.389Z,100165.13
2023-02-28T11:44:26.249Z,100157.53
2023-02-28T11:49:39.577Z,100158.09
2023-02-28T11:55:07.804Z,100164.06
2023-02-28T12:00:33.256Z,100157.03
2023-02-28T12:05:47.223Z,100155.44
2023-02-28T12:11:06.815Z,100154.03
2023-02-28T12:16:56.341Z,100156.56
2023-02-28T12:22:26.329Z,100152.31
2023-02-28T12:27:38.386Z,100157.78
2023-02-28T12:32:50.076Z,100157.97
2023-02-28T12:38:01.581Z,100157.44
2023-02-28T12:43:12.670Z,100148.75
2023-02-28T12:48:22.033Z,100150.59
2023-02-28T12:53:36.015Z,100148.28
2023-02-28T12:58:47.523Z,100145.09
2023-02-28T13:04:11.569Z,100143.56
2023-02-28T13:09:18.415Z,100139.81
2023-02-28T13:14:32.025Z,100127.19
2023-02-28T13:19:48.756Z,100134.00
2023-02-28T13:24:55.222Z,100138.31
2023-02-28T13:30:03.944Z,100127.97
2023-02-28T13:35:42.921Z,100135.94
2023-02-28T13:40:48.601Z,100119.31
2023-02-28T13:46:15.891Z,100124.53
2023-02-28T13:51:48.923Z,100109.88
2023-02-28T13:57:05.841Z,100118.78
2023-02-28T14:02:42.896Z,100104.38
2023-02-28T14:07:51.768Z,100099.00
2023-02-28T14:13:15.138Z,100082.13
2023-02-28T14:18:27.348Z,100083.53
2023-02-28T14:24:13.816Z,100077.34
2023-02-28T14:29:35.814Z,100074.69
2023-02-28T14:34:50.535Z,100072.50
2023-02-28T14:39:56.714Z,100083.72
2023-02-28T14:45:01.957Z,100070.84
2023-02-28T14:50:12.252Z,100069.97
2023-02-28T14:55:21.933Z,100070.88
2023-02-28T15:00:33.444Z,100072.31
2023-02-28T15:05:44.867Z,100076.31
2023-02-28T15:10:56.901Z,100086.50
2023-02-28T15:16:23.898Z,100089.22
2023-02-28T15:21:36.713Z,100085.56
2023-02-28T15:26:45.196Z,100080.44
2023-02-28T15:31:57.913Z,100079.69
2023-02-28T15:37:31.116Z,100075.31
2023-02-28T15:42:36.003Z,100077.72
2023-02-28T15:47:41.200Z,100076.34
2023-02-28T15:52:49.869Z,100072.88
2023-02-28T15:57:59.744Z,100071.72
2023-02-28T16:03:04.877Z,100070.72
2023-02-28T16:08:19.251Z,100074.25
2023-02-28T16:13:24.168Z,100070.00
2023-02-28T16:18:31.606Z,100067.91
2023-02-28T16:23:43.997Z,100074.88
2023-02-28T16:28:49.282Z,100081.97
2023-02-28T16:33:57.996Z,100079.94
2023-02-28T16:39:07.178Z,100078.31
2023-02-28T16:44:18.608Z,100079.63
2023-02-28T16:49:23.743Z,100075.81
2023-02-28T16:54:31.576Z,100074.22
2023-02-28T16:59:36.850Z,100073.78
2023-02-28T17:04:42.692Z,100081.63
2023-02-28T17:09:50.470Z,100079.56
2023-02-28T17:14:56.373Z,100085.28
2023-02-28T17:20:05.624Z,100084.78
2023-02-28T17:25:14.639Z,100101.00
2023-02-28T17:30:22.845Z,100098.22
2023-02-28T17:35:28.017Z,100092.34
2023-02-28T17:40:37.361Z,100099.03
2023-02-28T17:45:42.365Z,100092.50
2023-02-28T17:50:47.277Z,100096.41
2023-02-28T17:55:54.878Z,100090.53
2023-02-28T18:01:00.420Z,100081.84
2023-02-28T18:06:06.622Z,100076.09
2023-02-28T18:11:22.168Z,100081.94
2023-02-28T18:16:27.821Z,100082.19
2023-02-28T18:21:33.135Z,100086.28
2023-02-28T18:26:44.335Z,100082.81
2023-02-28T18:31:49.500Z,100082.41
2023-02-28T18:36:56.529Z,100077.63
2023-02-28T18:42:04.392Z,100084.97
2023-02-28T18:47:12.240Z,100090.28
2023-02-28T18:52:17.461Z,100092.91
2023-02-28T18:57:25.463Z,100089.91
2023-02-28T19:02:32.953Z,100095.72
2023-02-28T19:07:38.444Z,100092.50
2023-02-28T19:12:47.189Z,100091.91
2023-02-28T19:17:52.553Z,100103.94
2023-02-28T19:22:58.316Z,100096.91
2023-02-28T19:28:10.050Z,100094.69
2023-02-28T19:33:15.496Z,100093.84
2023-02-28T19:38:21.467Z,100097.50
2023-02-28T19:43:29.261Z,100098.09
2023-02-28T19:48:34.594Z,100100.25
2023-02-28T19:53:45.120Z,100101.03
2023-02-28T19:58:53.396Z,100103.16
2023-02-28T20:03:58.888Z,100109.97
2023-02-28T20:09:04.340Z,100108.22
2023-02-28T20:14:13.707Z,100109.31
2023-02-28T20:19:19.172Z,100102.53
2023-02-28T20:24:26.067Z,100101.69
2023-02-28T20:29:34.048Z,100105.16
2023-02-28T20:34:39.057Z,100101.03
2023-02-28T20:39:44.823Z,100103.16
2023-02-28T20:44:52.757Z,100113.94
2023-02-28T20:49:57.877Z,100107.56
2023-02-28T20:55:02.864Z,100113.13
2023-02-28T21:00:16.233Z,100114.94
2023-02-28T21:05:21.186Z,100113.34
2023-02-28T21:10:26.396Z,100118.56
2023-02-28T21:15:33.933Z,100117.44
2023-02-28T21:20:39.174Z,100104.06
2023-02-28T21:25:44.253Z,100104.63
2023-02-28T21:30:51.872Z,100101.91
2023-02-28T21:36:05.860Z,100104.28
2023-02-28T21:41:13.034Z,100107.75
2023-02-28T21:46:22.487Z,100104.19
2023-02-28T21:51:30.541Z,100112.78
2023-02-28T21:56:40.314Z,100114.81
2023-02-28T22:01:48.899Z,100108.84
2023-02-28T22:06:56.248Z,100107.22
2023-02-28T22:12:01.689Z,100099.31
2023-02-28T22:17:09.271Z,100099.25
2023-02-28T22:22:14.170Z,100108.41
2023-02-28T22:27:19.106Z,100110.09
2023-02-28T22:32:27.089Z,100108.53
2023-02-28T22:37:32.164Z,100111.91
2023-02-28T22:42:37.295Z,100107.28
2023-02-28T22:47:44.760Z,100108.16
2023-02-28T22:52:49.729Z,100112.34
2023-02-28T22:57:55.215Z,100105.97
2023-02-28T23:03:02.909Z,100111.66
2023-02-28T23:08:08.193Z,100111.66
2023-02-28T23:13:13.054Z,100115.34
2023-02-28T23:18:20.861Z,100119.16
2023-02-28T23:23:25.834Z,100119.28
2023-02-28T23:28:31.404Z,100125.25
2023-02-28T23:33:39.184Z,100125.84
2023-02-28T23:38:45.335Z,100134.78
2023-02-28T23:43:50.848Z,100134.63
2023-02-28T23:48:58.810Z,100134.03
2023-02-28T23:54:05.034Z,100121.66
2023-02-28T23:59:10.450Z,100134.84
